createdAt,value
2018-03-27T00:01:33.469Z,6.70
2018-03-27T00:04:00.915Z,6.70
2018-03-27T00:06:28.401Z,6.70
2018-03-27T00:08:55.869Z,6.70
2018-03-27T00:11:23.355Z,6.70
2018-03-27T00:13:50.812Z,6.70
2018-03-27T00:16:18.289Z,6.70
2018-03-27T00:18:45.773Z,6.70
2018-03-27T00:21:13.249Z,6.60
2018-03-27T00:23:40.704Z,6.50
2018-03-27T00:26:08.550Z,6.50
2018-03-27T00:28:48.058Z,6.60
2018-03-27T00:31:27.302Z,6.50
2018-03-27T00:34:06.659Z,6.60
2018-03-27T00:36:46.121Z,6.60
2018-03-27T00:39:25.486Z,6.60
2018-03-27T00:45:11.344Z,6.50
2018-03-27T00:47:39.584Z,6.50
2018-03-27T00:50:07.038Z,6.50
2018-03-27T00:52:34.520Z,6.50
2018-03-27T00:55:01.973Z,6.40
2018-03-27T00:57:29.453Z,6.40
2018-03-27T00:59:56.913Z,6.50
2018-03-27T01:02:24.389Z,6.50
2018-03-27T01:04:51.851Z,6.50
2018-03-27T01:07:19.317Z,6.40
2018-03-27T01:09:46.765Z,6.50
2018-03-27T01:12:15.000Z,6.40
2018-03-27T01:14:42.469Z,6.40
2018-03-27T01:17:09.946Z,6.30
2018-03-27T01:19:37.404Z,6.30
2018-03-27T01:22:04.865Z,6.20
2018-03-27T01:24:32.317Z,6.20
2018-03-27T01:27:00.574Z,6.20
2018-03-27T01:29:28.037Z,6.20
2018-03-27T01:31:56.282Z,6.10
2018-03-27T01:34:23.777Z,6.10
2018-03-27T01:36:51.225Z,6.10
2018-03-27T01:39:18.706Z,6.20
2018-03-27T01:41:46.146Z,6.20
2018-03-27T01:44:13.610Z,6.20
2018-03-27T01:46:42.070Z,6.20
2018-03-27T01:49:09.540Z,6.20
2018-03-27T01:51:36.993Z,6.20
2018-03-27T01:54:04.454Z,6.20
2018-03-27T01:56:31.937Z,6.20
2018-03-27T01:58:59.396Z,6.10
2018-03-27T02:01:26.864Z,6.10
2018-03-27T02:03:54.313Z,6.10
2018-03-27T02:06:21.770Z,6.00
2018-03-27T02:08:49.233Z,6.00
2018-03-27T02:11:23.101Z,6.00
2018-03-27T02:13:56.226Z,6.00
2018-03-27T02:16:29.365Z,6.00
2018-03-27T02:19:03.338Z,5.90
2018-03-27T02:21:30.329Z,5.80
2018-03-27T02:23:58.574Z,5.80
2018-03-27T02:26:26.027Z,5.90
2018-03-27T02:28:53.489Z,5.80
2018-03-27T02:31:20.942Z,5.70
2018-03-27T02:33:49.178Z,5.70
2018-03-27T02:36:16.630Z,5.70
2018-03-27T02:38:44.099Z,5.60
2018-03-27T02:41:12.327Z,5.60
2018-03-27T02:43:39.791Z,5.60
2018-03-27T02:46:07.246Z,5.60
2018-03-27T02:48:34.721Z,5.50
2018-03-27T02:51:02.585Z,5.50
2018-03-27T02:53:30.046Z,5.60
2018-03-27T02:55:57.524Z,5.50
2018-03-27T02:58:24.983Z,5.40
2018-03-27T03:00:53.202Z,5.30
2018-03-27T03:03:20.682Z,5.30
2018-03-27T03:05:48.130Z,5.30
2018-03-27T03:08:15.585Z,5.30
2018-03-27T03:10:43.805Z,5.20
2018-03-27T03:13:11.269Z,5.10
2018-03-27T03:15:38.733Z,5.10
2018-03-27T03:18:06.182Z,5.00
2018-03-27T03:20:34.429Z,5.00
2018-03-27T03:23:01.869Z,5.00
2018-03-27T03:25:29.325Z,5.00
2018-03-27T03:27:56.790Z,4.90
2018-03-27T03:30:24.263Z,5.00
2018-03-27T03:32:51.710Z,4.90
2018-03-27T03:35:19.944Z,4.70
2018-03-27T03:37:47.390Z,4.60
2018-03-27T03:40:14.856Z,4.60
2018-03-27T03:42:43.074Z,4.50
2018-03-27T03:45:10.540Z,4.50
2018-03-27T03:47:37.986Z,4.60
2018-03-27T03:50:06.209Z,4.50
2018-03-27T03:52:33.676Z,4.50
2018-03-27T03:55:01.161Z,4.40
2018-03-27T03:57:29.377Z,4.30
2018-03-27T03:59:56.842Z,4.30
2018-03-27T04:02:24.321Z,4.20
2018-03-27T04:04:51.788Z,4.30
2018-03-27T04:07:19.248Z,4.40
2018-03-27T04:09:46.713Z,4.40
2018-03-27T04:12:14.166Z,4.30
2018-03-27T04:14:41.625Z,4.20
2018-03-27T04:17:09.073Z,4.20
2018-03-27T04:19:37.320Z,4.10
2018-03-27T04:22:04.774Z,4.10
2018-03-27T04:24:32.228Z,4.20
2018-03-27T04:26:59.696Z,4.20
2018-03-27T04:29:27.149Z,4.10
2018-03-27T04:31:54.618Z,4.00
2018-03-27T04:34:22.073Z,3.90
2018-03-27T04:36:50.313Z,3.90
2018-03-27T04:39:17.765Z,3.90
2018-03-27T04:41:45.225Z,3.90
2018-03-27T04:44:12.669Z,3.90
2018-03-27T04:46:40.897Z,3.80
2018-03-27T04:49:08.353Z,3.80
2018-03-27T04:51:35.830Z,3.70
2018-03-27T04:54:03.305Z,3.70
2018-03-27T04:56:30.756Z,3.70
2018-03-27T04:58:59.961Z,3.60
2018-03-27T05:01:28.172Z,3.50
2018-03-27T05:03:55.626Z,3.50
2018-03-27T05:06:23.870Z,3.40
2018-03-27T05:08:51.337Z,3.40
2018-03-27T05:11:18.813Z,3.40
2018-03-27T05:13:46.261Z,3.40
2018-03-27T05:16:14.641Z,3.30
2018-03-27T05:18:42.089Z,3.30
2018-03-27T05:21:10.368Z,3.50
2018-03-27T05:23:37.835Z,3.40
2018-03-27T05:26:05.302Z,3.50
2018-03-27T05:28:33.518Z,3.50
2018-03-27T05:31:00.994Z,3.50
2018-03-27T05:33:28.523Z,3.60
2018-03-27T05:35:55.928Z,3.60
2018-03-27T05:38:23.386Z,3.60
2018-03-27T05:40:51.628Z,3.70
2018-03-27T05:43:19.085Z,3.70
2018-03-27T05:45:46.561Z,3.80
2018-03-27T05:48:14.017Z,3.80
2018-03-27T05:50:41.502Z,3.80
2018-03-27T05:53:09.036Z,3.90
2018-03-27T05:55:37.265Z,4.10
2018-03-27T05:58:04.726Z,4.10
2018-03-27T06:00:33.693Z,4.10
2018-03-27T06:03:01.938Z,4.30
2018-03-27T06:05:29.390Z,4.30
2018-03-27T06:07:56.870Z,4.40
2018-03-27T06:10:24.331Z,4.40
2018-03-27T06:12:51.801Z,4.40
2018-03-27T06:15:19.266Z,4.40
2018-03-27T06:17:46.740Z,4.40
2018-03-27T06:20:14.258Z,4.50
2018-03-27T06:22:41.710Z,4.40
2018-03-27T06:25:09.245Z,4.40
2018-03-27T06:27:36.775Z,4.60
2018-03-27T06:30:04.195Z,4.50
2018-03-27T06:32:31.683Z,4.50
2018-03-27T06:34:59.127Z,4.50
2018-03-27T06:37:26.646Z,4.50
2018-03-27T06:39:54.088Z,4.60
2018-03-27T06:42:21.561Z,4.80
2018-03-27T06:44:49.029Z,4.80
2018-03-27T06:47:16.501Z,4.80
2018-03-27T06:49:43.970Z,5.00
2018-03-27T06:52:11.440Z,5.00
2018-03-27T06:54:38.917Z,5.20
2018-03-27T06:57:06.378Z,5.30
2018-03-27T06:59:33.856Z,5.40
2018-03-27T07:02:01.308Z,5.50
2018-03-27T07:04:28.831Z,5.60
2018-03-27T07:06:56.324Z,5.70
2018-03-27T07:09:23.814Z,5.80
2018-03-27T07:11:51.242Z,5.80
2018-03-27T07:14:18.721Z,5.90
2018-03-27T07:16:46.192Z,6.00
2018-03-27T07:19:13.662Z,6.10
2018-03-27T07:21:41.117Z,6.20
2018-03-27T07:24:08.589Z,6.30
2018-03-27T07:26:36.056Z,6.50
2018-03-27T07:29:03.551Z,6.50
2018-03-27T07:31:31.012Z,6.70
2018-03-27T07:33:58.485Z,6.90
2018-03-27T07:36:25.950Z,7.00
2018-03-27T07:38:53.502Z,7.10
2018-03-27T07:41:20.973Z,7.20
2018-03-27T07:43:48.438Z,7.30
2018-03-27T07:46:15.942Z,7.40
2018-03-27T07:48:43.396Z,7.50
2018-03-27T07:51:11.809Z,7.70
2018-03-27T07:53:39.266Z,7.80
2018-03-27T07:56:06.744Z,7.90
2018-03-27T07:58:34.236Z,8.10
2018-03-27T08:01:01.770Z,8.20
2018-03-27T08:03:29.230Z,8.20
2018-03-27T08:05:56.677Z,8.20
2018-03-27T08:08:24.142Z,8.20
2018-03-27T08:13:54.440Z,8.40
2018-03-27T08:16:22.676Z,8.80
2018-03-27T08:18:50.155Z,8.70
2018-03-27T08:21:17.614Z,8.90
2018-03-27T08:23:45.083Z,9.00
2018-03-27T08:26:12.554Z,9.10
2018-03-27T08:28:40.022Z,9.10
2018-03-27T08:31:07.492Z,9.20
2018-03-27T08:33:34.962Z,9.30
2018-03-27T08:36:02.424Z,9.40
2018-03-27T08:38:29.893Z,9.50
2018-03-27T08:40:57.405Z,9.50
2018-03-27T08:43:24.940Z,9.50
2018-03-27T08:45:52.446Z,9.60
2018-03-27T08:48:19.930Z,9.70
2018-03-27T08:50:47.393Z,9.80
2018-03-27T08:53:14.850Z,9.80
2018-03-27T08:55:44.822Z,10.10
2018-03-27T08:58:13.047Z,10.40
2018-03-27T09:00:40.598Z,10.40
2018-03-27T09:03:08.004Z,10.50
2018-03-27T09:05:35.485Z,10.70
2018-03-27T09:08:02.941Z,11.00
2018-03-27T09:10:30.408Z,11.20
2018-03-27T09:12:57.864Z,11.30
2018-03-27T09:15:25.337Z,11.40
2018-03-27T09:17:52.793Z,11.60
2018-03-27T09:20:20.271Z,11.70
2018-03-27T09:22:47.730Z,11.70
2018-03-27T09:25:15.312Z,11.70
2018-03-27T09:27:42.764Z,11.70
2018-03-27T09:30:10.246Z,11.60
2018-03-27T09:32:37.701Z,11.70
2018-03-27T09:35:05.944Z,11.90
2018-03-27T09:37:33.425Z,11.90
2018-03-27T09:40:00.901Z,11.70
2018-03-27T09:42:28.357Z,11.80
2018-03-27T09:44:55.825Z,11.90
2018-03-27T09:47:23.302Z,12.00
2018-03-27T09:49:50.785Z,12.20
2018-03-27T09:52:18.233Z,12.30
2018-03-27T09:54:45.739Z,12.30
2018-03-27T09:57:13.205Z,12.30
2018-03-27T09:59:40.657Z,12.30
2018-03-27T10:02:08.412Z,12.30
2018-03-27T10:04:35.879Z,12.20
2018-03-27T10:07:03.381Z,12.30
2018-03-27T10:09:30.853Z,12.20
2018-03-27T10:11:58.320Z,12.20
2018-03-27T10:14:25.808Z,12.20
2018-03-27T10:16:53.265Z,12.20
2018-03-27T10:19:20.724Z,12.10
2018-03-27T10:21:48.192Z,11.90
2018-03-27T10:24:15.657Z,12.00
2018-03-27T10:26:43.130Z,11.80
2018-03-27T10:29:10.589Z,11.70
2018-03-27T10:31:38.061Z,11.70
2018-03-27T10:34:05.558Z,11.70
2018-03-27T10:36:33.027Z,11.90
2018-03-27T10:39:00.484Z,12.10
2018-03-27T10:41:27.963Z,12.30
2018-03-27T10:43:55.424Z,12.60
2018-03-27T10:46:22.900Z,12.90
2018-03-27T10:48:50.357Z,12.60
2018-03-27T10:51:17.837Z,12.40
2018-03-27T10:53:45.301Z,12.40
2018-03-27T10:56:12.769Z,12.50
2018-03-27T10:58:40.242Z,12.60
2018-03-27T11:01:07.700Z,12.60
2018-03-27T11:03:35.165Z,12.80
2018-03-27T11:06:02.629Z,12.70
2018-03-27T11:08:30.864Z,12.70
2018-03-27T11:10:58.330Z,12.70
2018-03-27T11:13:25.796Z,12.50
2018-03-27T11:15:53.252Z,12.40
2018-03-27T11:18:20.727Z,12.60
2018-03-27T11:20:48.193Z,12.70
2018-03-27T11:23:15.707Z,12.90
2018-03-27T11:25:43.128Z,13.00
2018-03-27T11:28:10.599Z,12.90
2018-03-27T11:30:38.057Z,12.80
2018-03-27T11:33:05.532Z,12.70
2018-03-27T11:35:33.005Z,12.60
2018-03-27T11:38:00.470Z,12.50
2018-03-27T11:40:27.945Z,12.70
2018-03-27T11:42:55.418Z,12.80
2018-03-27T11:45:22.882Z,13.10
2018-03-27T11:47:50.365Z,13.10
2018-03-27T11:50:17.826Z,13.10
2018-03-27T11:52:46.056Z,13.20
2018-03-27T11:55:13.524Z,13.20
2018-03-27T11:57:41.769Z,13.90
2018-03-27T12:00:10.060Z,14.00
2018-03-27T12:02:38.280Z,14.00
2018-03-27T12:05:05.740Z,14.00
2018-03-27T12:07:33.208Z,14.20
2018-03-27T12:10:00.657Z,14.30
2018-03-27T12:12:28.896Z,14.50
2018-03-27T12:14:56.369Z,14.50
2018-03-27T12:17:23.829Z,14.60
2018-03-27T12:19:51.285Z,14.70
2018-03-27T12:22:18.753Z,14.90
2018-03-27T12:24:46.216Z,15.00
2018-03-27T12:27:13.665Z,14.70
2018-03-27T12:29:41.912Z,15.00
2018-03-27T12:32:09.372Z,15.00
2018-03-27T12:34:36.837Z,14.70
2018-03-27T12:37:04.292Z,14.40
2018-03-27T12:39:31.766Z,14.40
2018-03-27T12:41:59.243Z,14.50
2018-03-27T12:44:26.716Z,14.70
2018-03-27T12:46:54.179Z,14.80
2018-03-27T12:49:21.665Z,14.90
2018-03-27T12:51:49.159Z,15.10
2018-03-27T12:54:16.623Z,14.70
2018-03-27T12:56:44.183Z,14.60
2018-03-27T12:59:11.649Z,14.80
2018-03-27T13:01:39.119Z,14.90
2018-03-27T13:04:06.597Z,14.90
2018-03-27T13:06:34.061Z,14.80
2018-03-27T13:09:01.534Z,14.90
2018-03-27T13:11:28.989Z,15.10
2018-03-27T13:13:57.225Z,15.10
2018-03-27T13:16:24.700Z,15.10
2018-03-27T13:18:52.181Z,15.10
2018-03-27T13:21:20.628Z,14.90
2018-03-27T13:23:48.105Z,14.90
2018-03-27T13:26:15.578Z,14.80
2018-03-27T13:28:43.089Z,15.00
2018-03-27T13:31:11.314Z,15.50
2018-03-27T13:33:38.787Z,15.50
2018-03-27T13:36:06.249Z,15.60
2018-03-27T13:38:33.724Z,15.00
2018-03-27T13:41:01.189Z,15.00
2018-03-27T13:43:28.677Z,15.10
2018-03-27T13:45:56.136Z,14.90
2018-03-27T13:48:23.604Z,14.90
2018-03-27T13:50:51.079Z,14.60
2018-03-27T13:53:18.543Z,14.60
2018-03-27T13:55:46.013Z,14.40
2018-03-27T13:58:13.493Z,14.40
2018-03-27T14:00:40.975Z,14.30
2018-03-27T14:03:08.443Z,14.30
2018-03-27T14:05:36.676Z,14.00
2018-03-27T14:08:04.164Z,14.00
2018-03-27T14:10:31.697Z,14.00
2018-03-27T14:12:59.153Z,14.00
2018-03-27T14:15:26.624Z,14.10
2018-03-27T14:17:54.088Z,13.90
2018-03-27T14:20:21.568Z,13.90
2018-03-27T14:22:49.035Z,14.00
2018-03-27T14:25:16.518Z,14.00
2018-03-27T14:27:43.984Z,14.00
2018-03-27T14:30:11.462Z,13.90
2018-03-27T14:32:38.923Z,13.80
2018-03-27T14:35:06.389Z,13.40
2018-03-27T14:37:33.853Z,13.50
2018-03-27T14:40:01.326Z,13.40
2018-03-27T14:42:28.786Z,13.30
2018-03-27T14:44:56.269Z,13.20
2018-03-27T14:47:23.745Z,13.20
2018-03-27T14:49:51.209Z,13.00
2018-03-27T14:52:18.682Z,12.90
2018-03-27T14:54:46.149Z,12.70
2018-03-27T14:57:13.617Z,12.50
2018-03-27T14:59:41.072Z,12.40
2018-03-27T15:02:08.545Z,12.40
2018-03-27T15:04:36.007Z,12.30
2018-03-27T15:07:04.233Z,12.20
2018-03-27T15:09:31.701Z,12.20
2018-03-27T15:11:59.203Z,12.30
2018-03-27T15:14:26.654Z,12.30
2018-03-27T15:16:54.124Z,12.30
2018-03-27T15:19:21.598Z,12.20
2018-03-27T15:21:49.073Z,12.10
2018-03-27T15:24:16.541Z,12.10
2018-03-27T15:26:44.003Z,12.20
2018-03-27T15:29:11.505Z,12.10
2018-03-27T15:31:38.977Z,12.00
2018-03-27T15:34:06.448Z,12.00
2018-03-27T15:36:33.926Z,11.90
2018-03-27T15:39:01.388Z,11.90
2018-03-27T15:41:28.854Z,12.00
2018-03-27T15:43:56.309Z,11.90
2018-03-27T15:46:23.793Z,11.90
2018-03-27T15:48:51.287Z,11.80
2018-03-27T15:51:18.750Z,11.80
2018-03-27T15:53:46.209Z,11.80
2018-03-27T15:56:13.691Z,11.60
2018-03-27T15:58:41.920Z,11.50
2018-03-27T16:01:09.397Z,11.50
2018-03-27T16:03:36.865Z,11.40
2018-03-27T16:06:04.358Z,11.30
2018-03-27T16:08:31.829Z,11.40
2018-03-27T16:10:59.327Z,11.30
2018-03-27T16:13:26.797Z,11.20
2018-03-27T16:15:54.262Z,11.00
2018-03-27T16:18:21.734Z,11.00
2018-03-27T16:20:49.228Z,10.90
2018-03-27T16:23:17.480Z,10.70
2018-03-27T16:25:45.022Z,10.70
2018-03-27T16:28:12.477Z,10.60
2018-03-27T16:30:39.946Z,10.40
2018-03-27T16:33:07.413Z,10.40
2018-03-27T16:35:35.970Z,10.20
2018-03-27T16:38:03.447Z,10.30
2018-03-27T16:40:30.989Z,10.30
2018-03-27T16:42:58.461Z,10.30
2018-03-27T16:45:25.929Z,10.10
2018-03-27T16:47:53.396Z,10.00
2018-03-27T16:50:20.865Z,9.80
2018-03-27T16:52:48.329Z,9.70
2018-03-27T16:55:15.796Z,9.70
2018-03-27T16:57:43.259Z,9.60
2018-03-27T17:00:10.717Z,9.50
2018-03-27T17:02:38.937Z,9.40
2018-03-27T17:05:07.168Z,9.30
2018-03-27T17:07:34.625Z,9.30
2018-03-27T17:10:02.105Z,9.30
2018-03-27T17:12:29.630Z,9.30
2018-03-27T17:15:07.001Z,9.40
2018-03-27T17:17:35.229Z,9.20
2018-03-27T17:20:02.706Z,9.20
2018-03-27T17:22:30.168Z,9.00
2018-03-27T17:24:57.677Z,8.90
2018-03-27T17:27:25.124Z,8.80
2018-03-27T17:29:52.595Z,8.80
2018-03-27T17:32:20.052Z,8.70
2018-03-27T17:34:47.508Z,8.60
2018-03-27T17:37:14.968Z,8.60
2018-03-27T17:39:43.203Z,8.50
2018-03-27T17:42:10.677Z,8.50
2018-03-27T17:44:38.147Z,8.70
2018-03-27T17:47:05.613Z,8.70
2018-03-27T17:49:33.101Z,8.50
2018-03-27T17:52:00.562Z,8.40
2018-03-27T17:54:28.046Z,8.30
2018-03-27T17:56:55.506Z,8.20
2018-03-27T17:59:22.980Z,8.20
2018-03-27T18:01:50.474Z,8.10
2018-03-27T18:04:17.933Z,8.10
2018-03-27T18:06:45.411Z,8.00
2018-03-27T18:09:12.902Z,7.90
2018-03-27T18:11:41.144Z,8.10
2018-03-27T18:14:08.665Z,8.10
2018-03-27T18:16:36.889Z,7.90
2018-03-27T18:43:17.832Z,7.70
2018-03-27T18:45:45.373Z,7.70
2018-03-27T18:48:13.661Z,7.70
2018-03-27T19:02:42.347Z,7.70
2018-03-27T19:05:09.826Z,7.60
2018-03-27T19:07:37.303Z,7.60
2018-03-27T19:18:47.400Z,7.70
2018-03-27T19:21:14.866Z,7.70
2018-03-27T19:23:42.313Z,7.60
2018-03-27T19:26:09.806Z,7.60
2018-03-27T19:28:37.279Z,7.60
2018-03-27T19:31:05.505Z,7.70
2018-03-27T19:33:33.817Z,7.70
2018-03-27T19:36:01.330Z,7.70
2018-03-27T19:38:28.797Z,7.70
2018-03-27T19:40:56.353Z,7.60
2018-03-27T19:43:23.829Z,7.60
2018-03-27T19:45:51.278Z,7.50
2018-03-27T19:48:18.735Z,7.60
2018-03-27T19:50:46.190Z,7.70
2018-03-27T19:53:13.769Z,7.70
2018-03-27T19:55:41.285Z,7.70
2018-03-27T19:58:08.764Z,7.80
2018-03-27T20:00:36.222Z,7.80
2018-03-27T20:03:03.677Z,7.70
2018-03-27T20:05:31.156Z,7.80
2018-03-27T20:08:05.437Z,7.80
2018-03-27T20:10:32.890Z,7.80
2018-03-27T20:13:00.354Z,7.80
2018-03-27T20:15:27.929Z,7.80
2018-03-27T20:17:55.386Z,7.80
2018-03-27T20:20:22.855Z,7.80
2018-03-27T20:22:50.307Z,7.80
2018-03-27T20:25:18.378Z,7.90
2018-03-27T20:27:45.828Z,7.90
2018-03-27T20:30:13.381Z,8.00
2018-03-27T20:32:40.862Z,8.00
2018-03-27T20:35:08.405Z,8.10
2018-03-27T20:37:35.862Z,8.10
2018-03-27T20:40:03.340Z,8.20
2018-03-27T20:42:31.554Z,8.20
2018-03-27T20:44:59.096Z,8.20
2018-03-27T20:47:26.566Z,8.20
2018-03-27T20:49:54.026Z,8.30
2018-03-27T20:52:21.652Z,8.40
2018-03-27T20:54:49.179Z,8.40
2018-03-27T20:57:16.654Z,8.40
2018-03-27T20:59:44.427Z,8.50
2018-03-27T21:02:12.009Z,8.40
2018-03-27T21:04:39.518Z,8.50
2018-03-27T21:07:06.978Z,8.60
2018-03-27T21:09:34.485Z,8.60
2018-03-27T21:12:01.957Z,8.60
2018-03-27T21:14:29.480Z,8.70
2018-03-27T21:16:57.707Z,8.60
2018-03-27T21:19:25.182Z,8.60
2018-03-27T21:21:52.682Z,8.60
2018-03-27T21:24:21.250Z,8.60
2018-03-27T21:26:49.492Z,8.60
2018-03-27T21:29:16.994Z,8.60
2018-03-27T21:31:44.450Z,8.70
2018-03-27T21:34:11.958Z,8.70
2018-03-27T21:36:39.684Z,8.70
2018-03-27T21:39:07.292Z,8.80
2018-03-27T21:41:35.602Z,8.80
2018-03-27T21:44:03.971Z,8.70
2018-03-27T21:46:32.509Z,8.70
2018-03-27T21:49:00.351Z,8.70
2018-03-27T21:51:28.179Z,8.80
2018-03-27T21:53:55.729Z,8.80
2018-03-27T21:56:23.225Z,8.80
2018-03-27T21:58:50.689Z,8.80
2018-03-27T22:01:18.133Z,8.90
2018-03-27T22:03:45.613Z,8.90
2018-03-27T22:06:13.161Z,8.90
2018-03-27T22:08:40.618Z,8.80
2018-03-27T22:11:08.085Z,8.90
2018-03-27T22:13:35.550Z,9.00
2018-03-27T22:16:03.007Z,9.00
2018-03-27T22:18:30.445Z,9.00
2018-03-27T22:20:58.212Z,9.00
2018-03-27T22:23:25.683Z,9.10
2018-03-27T22:25:53.146Z,9.10
2018-03-27T22:28:20.732Z,9.10
2018-03-27T22:30:48.953Z,9.10
2018-03-27T22:33:16.405Z,9.10
2018-03-27T22:35:43.959Z,9.10
2018-03-27T22:38:11.721Z,9.10
2018-03-27T22:40:39.196Z,9.10
2018-03-27T22:43:06.840Z,9.10
2018-03-27T22:45:34.337Z,9.20
2018-03-27T22:48:01.777Z,9.10
2018-03-27T22:50:29.331Z,9.00
2018-03-27T22:52:57.029Z,8.90
2018-03-27T22:55:24.905Z,8.90
2018-03-27T22:57:52.535Z,8.90
2018-03-27T23:00:20.930Z,8.90
2018-03-27T23:02:48.394Z,8.80
2018-03-27T23:05:15.866Z,8.70
2018-03-27T23:07:43.318Z,8.70
2018-03-27T23:10:11.550Z,8.70
2018-03-27T23:12:39.163Z,8.70
2018-03-27T23:15:07.570Z,8.70
2018-03-27T23:17:35.036Z,8.70
2018-03-27T23:20:02.494Z,8.70
2018-03-27T23:22:30.704Z,8.80
2018-03-27T23:24:58.243Z,8.80
2018-03-27T23:27:25.716Z,8.70
2018-03-27T23:29:53.225Z,8.80
2018-03-27T23:32:20.744Z,8.90
2018-03-27T23:34:49.117Z,8.80
2018-03-27T23:37:17.435Z,8.80
2018-03-27T23:39:44.908Z,8.80
2018-03-27T23:42:12.475Z,8.90
2018-03-27T23:44:39.928Z,8.90
2018-03-27T23:47:07.462Z,8.80
2018-03-27T23:49:34.969Z,8.80
2018-03-27T23:52:02.662Z,8.80
2018-03-27T23:54:30.915Z,8.90
2018-03-27T23:56:58.405Z,8.90
2018-03-27T23:59:26.609Z,8.90
